createdAt,value
2023-04-20T00:01:32.821Z,203.13
2023-04-20T00:04:01.020Z,206.00
2023-04-20T00:06:30.280Z,202.97
2023-04-20T00:08:58.305Z,206.17
2023-04-20T00:11:28.356Z,203.40
2023-04-20T00:13:56.327Z,206.63
2023-04-20T00:16:24.512Z,205.93
2023-04-20T00:18:52.704Z,200.73
2023-04-20T00:21:23.982Z,205.93
2023-04-20T00:23:52.452Z,198.80
2023-04-20T00:26:21.560Z,199.87
2023-04-20T00:28:51.695Z,200.73
2023-04-20T00:31:20.093Z,201.37
2023-04-20T00:33:48.673Z,199.73
2023-04-20T00:36:16.730Z,201.77
2023-04-20T00:38:44.760Z,200.37
2023-04-20T00:41:12.922Z,205.17
2023-04-20T00:43:52.674Z,200.30
2023-04-20T00:46:21.094Z,204.60
2023-04-20T00:48:51.049Z,202.43
2023-04-20T00:51:20.553Z,211.83
2023-04-20T00:53:48.697Z,204.77
2023-04-20T00:56:17.491Z,204.57
2023-04-20T00:58:45.643Z,204.93
2023-04-20T01:01:17.750Z,200.30
2023-04-20T01:03:46.403Z,203.37
2023-04-20T01:06:15.724Z,209.10
2023-04-20T01:08:48.151Z,205.27
2023-04-20T01:11:16.318Z,201.07
2023-04-20T01:13:44.694Z,205.73
2023-04-20T01:16:14.439Z,204.50
2023-04-20T01:18:48.286Z,205.43
2023-04-20T01:21:18.623Z,205.77
2023-04-20T01:23:48.381Z,204.73
2023-04-20T01:26:17.937Z,207.93
2023-04-20T01:28:46.542Z,205.13
2023-04-20T01:31:15.356Z,209.90
2023-04-20T01:33:43.516Z,213.33
2023-04-20T01:36:11.775Z,202.73
2023-04-20T01:38:40.005Z,207.60
2023-04-20T01:41:10.744Z,207.27
2023-04-20T01:43:39.712Z,207.07
2023-04-20T01:46:08.137Z,211.40
2023-04-20T01:48:36.220Z,208.57
2023-04-20T01:51:04.383Z,209.33
2023-04-20T01:53:32.469Z,208.30
2023-04-20T01:56:02.288Z,206.53
2023-04-20T01:58:31.693Z,204.93
2023-04-20T02:00:59.764Z,204.57
2023-04-20T02:03:28.153Z,206.60
2023-04-20T02:05:56.539Z,202.43
2023-04-20T02:08:24.581Z,204.93
2023-04-20T02:10:52.611Z,207.53
2023-04-20T02:13:20.709Z,204.57
2023-04-20T02:15:50.159Z,208.67
2023-04-20T02:18:18.202Z,205.23
2023-04-20T02:20:47.047Z,210.60
2023-04-20T02:23:15.601Z,210.50
2023-04-20T02:25:43.627Z,211.73
2023-04-20T02:28:11.645Z,214.03
2023-04-20T02:30:39.696Z,213.80
2023-04-20T02:33:09.099Z,218.03
2023-04-20T02:35:37.096Z,217.03
2023-04-20T02:38:05.113Z,212.87
2023-04-20T02:40:33.097Z,218.90
2023-04-20T02:43:01.102Z,218.80
2023-04-20T02:45:30.751Z,224.63
2023-04-20T02:47:58.836Z,227.20
2023-04-20T02:50:28.238Z,229.83
2023-04-20T02:52:56.203Z,221.50
2023-04-20T02:55:24.238Z,225.90
2023-04-20T02:57:52.252Z,221.33
2023-04-20T03:00:21.115Z,222.73
2023-04-20T03:02:49.296Z,222.27
2023-04-20T03:05:17.842Z,226.03
2023-04-20T03:07:47.302Z,224.03
2023-04-20T03:10:15.330Z,229.00
2023-04-20T03:12:43.300Z,228.23
2023-04-20T03:15:11.973Z,222.07
2023-04-20T03:17:40.000Z,226.23
2023-04-20T03:20:09.883Z,226.93
2023-04-20T03:22:37.943Z,225.63
2023-04-20T03:25:09.035Z,222.73
2023-04-20T03:27:39.121Z,229.13
2023-04-20T03:30:08.543Z,226.23
2023-04-20T03:32:36.576Z,225.73
2023-04-20T03:35:04.744Z,230.83
2023-04-20T03:37:32.865Z,226.40
2023-04-20T03:40:01.034Z,233.63
2023-04-20T03:42:31.100Z,230.30
2023-04-20T03:44:59.131Z,215.63
2023-04-20T03:47:27.138Z,225.13
2023-04-20T03:49:55.181Z,221.17
2023-04-20T03:52:23.357Z,231.13
2023-04-20T03:54:51.489Z,220.80
2023-04-20T03:57:19.625Z,232.77
2023-04-20T03:59:49.075Z,229.70
2023-04-20T04:02:17.336Z,232.27
2023-04-20T04:04:46.393Z,227.93
2023-04-20T04:07:14.566Z,235.93
2023-04-20T04:09:42.561Z,230.47
2023-04-20T04:12:10.829Z,226.03
2023-04-20T04:14:38.858Z,233.73
2023-04-20T04:17:08.794Z,233.27
2023-04-20T04:19:36.961Z,229.43
2023-04-20T04:22:04.957Z,231.07
2023-04-20T04:24:33.372Z,238.20
2023-04-20T04:27:05.293Z,234.23
2023-04-20T04:29:35.749Z,224.73
2023-04-20T04:32:04.413Z,231.90
2023-04-20T04:34:33.825Z,231.30
2023-04-20T04:37:02.468Z,230.60
2023-04-20T04:39:31.399Z,231.57
2023-04-20T04:41:59.390Z,230.10
2023-04-20T04:44:28.858Z,230.93
2023-04-20T04:46:57.611Z,236.33
2023-04-20T04:49:26.559Z,234.37
2023-04-20T04:51:56.014Z,234.67
2023-04-20T04:54:24.005Z,233.87
2023-04-20T04:56:52.053Z,242.43
2023-04-20T04:59:20.213Z,239.47
2023-04-20T05:01:48.306Z,242.73
2023-04-20T05:04:16.428Z,244.40
2023-04-20T05:06:44.512Z,247.90
2023-04-20T05:09:13.963Z,248.97
2023-04-20T05:11:41.967Z,246.70
2023-04-20T05:14:15.186Z,245.83
2023-04-20T05:16:43.286Z,253.30
2023-04-20T05:19:11.374Z,249.80
2023-04-20T05:21:39.928Z,255.80
2023-04-20T05:24:08.551Z,260.97
2023-04-20T05:26:37.901Z,258.90
2023-04-20T05:29:05.985Z,261.30
2023-04-20T05:31:34.152Z,265.53
2023-04-20T05:34:03.017Z,262.23
2023-04-20T05:36:33.533Z,261.57
2023-04-20T05:39:01.607Z,264.70
2023-04-20T05:41:29.652Z,269.83
2023-04-20T05:43:59.178Z,263.33
2023-04-20T05:46:27.695Z,268.97
2023-04-20T05:48:55.802Z,261.23
2023-04-20T05:51:25.850Z,266.03
2023-04-20T05:53:53.896Z,267.53
2023-04-20T05:56:21.942Z,266.60
2023-04-20T05:58:50.131Z,269.50
2023-04-20T06:01:19.552Z,269.30
2023-04-20T06:03:49.238Z,270.97
2023-04-20T06:06:17.567Z,276.17
2023-04-20T06:08:45.571Z,272.50
2023-04-20T06:11:13.643Z,270.30
2023-04-20T06:13:41.689Z,271.87
2023-04-20T06:16:11.023Z,273.43
2023-04-20T06:18:40.596Z,271.13
2023-04-20T06:21:11.230Z,275.67
2023-04-20T06:23:39.429Z,272.30
2023-04-20T06:26:08.860Z,266.57
2023-04-20T06:28:37.221Z,269.67
2023-04-20T06:31:06.007Z,268.47
2023-04-20T06:33:34.199Z,267.80
2023-04-20T06:36:03.568Z,272.13
2023-04-20T06:38:31.713Z,269.43
2023-04-20T06:41:02.554Z,272.53
2023-04-20T06:43:30.891Z,275.50
2023-04-20T06:46:00.682Z,276.30
2023-04-20T06:48:32.612Z,275.23
2023-04-20T06:51:02.153Z,278.67
2023-04-20T06:53:31.551Z,278.77
2023-04-20T06:56:00.050Z,278.23
2023-04-20T06:58:28.105Z,278.77
2023-04-20T07:00:59.048Z,279.93
2023-04-20T07:03:27.405Z,278.17
2023-04-20T07:05:55.588Z,281.23
2023-04-20T07:08:24.174Z,286.30
2023-04-20T07:10:54.325Z,289.57
2023-04-20T07:13:22.361Z,288.43
2023-04-20T07:15:50.617Z,293.47
2023-04-20T07:18:18.716Z,295.47
2023-04-20T07:20:47.050Z,298.10
2023-04-20T07:23:15.057Z,301.87
2023-04-20T07:25:43.352Z,303.37
2023-04-20T07:28:13.148Z,307.73
2023-04-20T07:30:41.378Z,305.50
2023-04-20T07:33:11.339Z,296.27
2023-04-20T07:35:39.399Z,305.80
2023-04-20T07:38:07.377Z,307.87
2023-04-20T07:40:35.367Z,308.80
2023-04-20T07:43:03.629Z,307.40
2023-04-20T07:45:33.042Z,310.20
2023-04-20T07:48:01.577Z,309.40
2023-04-20T07:50:29.902Z,313.87
2023-04-20T07:52:57.912Z,317.17
2023-04-20T07:55:25.918Z,312.60
2023-04-20T07:57:53.887Z,306.40
2023-04-20T08:00:22.925Z,308.13
2023-04-20T08:02:52.424Z,305.87
2023-04-20T08:05:20.686Z,304.40
2023-04-20T08:07:48.826Z,307.53
2023-04-20T08:10:16.933Z,312.33
2023-04-20T08:12:45.084Z,314.40
2023-04-20T08:15:14.455Z,312.23
2023-04-20T08:17:43.766Z,315.60
2023-04-20T08:20:13.317Z,318.53
2023-04-20T08:22:42.547Z,317.90
2023-04-20T08:25:11.331Z,315.43
2023-04-20T08:27:39.437Z,320.87
2023-04-20T08:30:08.744Z,319.67
2023-04-20T08:32:38.240Z,321.00
2023-04-20T08:35:07.380Z,319.60
2023-04-20T08:37:37.534Z,319.60
2023-04-20T08:40:06.805Z,316.03
2023-04-20T08:42:34.850Z,315.90
2023-04-20T08:45:02.908Z,315.73
2023-04-20T08:47:32.498Z,315.37
2023-04-20T08:50:02.084Z,317.63
2023-04-20T08:52:30.124Z,313.33
2023-04-20T08:54:59.479Z,314.57
2023-04-20T08:57:27.613Z,310.83
2023-04-20T08:59:56.727Z,309.37
2023-04-20T09:02:24.928Z,306.60
2023-04-20T09:05:02.948Z,308.90
2023-04-20T09:07:31.530Z,305.40
2023-04-20T09:10:02.304Z,303.00
2023-04-20T09:12:30.337Z,303.20
2023-04-20T09:14:58.443Z,298.63
2023-04-20T09:17:34.321Z,299.70
2023-04-20T09:20:02.503Z,304.10
2023-04-20T09:22:31.472Z,301.23
2023-04-20T09:25:01.197Z,302.40
2023-04-20T09:27:29.342Z,300.30
2023-04-20T09:30:01.206Z,304.43
2023-04-20T09:32:29.879Z,300.67
2023-04-20T09:34:59.661Z,305.10
2023-04-20T09:37:27.631Z,307.70
2023-04-20T09:40:00.590Z,312.33
2023-04-20T09:42:31.537Z,314.17
2023-04-20T09:45:00.668Z,319.40
2023-04-20T09:47:29.981Z,315.43
2023-04-20T09:50:04.477Z,319.80
2023-04-20T09:52:39.341Z,322.37
2023-04-20T09:55:08.778Z,326.33
2023-04-20T09:57:40.075Z,327.63
2023-04-20T10:00:10.800Z,324.10
2023-04-20T10:02:39.635Z,324.73
2023-04-20T10:05:08.812Z,325.20
2023-04-20T10:07:37.081Z,326.77
2023-04-20T10:10:10.015Z,331.17
2023-04-20T10:12:50.374Z,330.97
2023-04-20T10:15:18.454Z,335.33
2023-04-20T10:17:46.752Z,335.00
2023-04-20T10:20:22.523Z,343.43
2023-04-20T10:22:53.061Z,343.67
2023-04-20T10:25:24.412Z,344.43
2023-04-20T10:27:58.968Z,344.73
2023-04-20T10:30:27.964Z,342.73
2023-04-20T10:33:06.660Z,346.43
2023-04-20T10:35:48.123Z,344.73
2023-04-20T10:38:16.174Z,341.87
2023-04-20T10:40:44.245Z,343.27
2023-04-20T10:43:23.408Z,346.97
2023-04-20T10:45:52.333Z,345.13
2023-04-20T10:48:20.410Z,340.03
2023-04-20T10:50:48.642Z,340.00
2023-04-20T10:53:21.527Z,343.77
2023-04-20T10:55:58.763Z,334.60
2023-04-20T10:58:28.351Z,345.90
2023-04-20T11:01:00.982Z,348.27
2023-04-20T11:03:30.255Z,346.00
2023-04-20T11:06:01.439Z,348.73
2023-04-20T11:08:40.157Z,343.50
2023-04-20T11:11:19.367Z,352.47
2023-04-20T11:13:49.328Z,350.67
2023-04-20T11:16:19.110Z,348.30
2023-04-20T11:18:52.810Z,355.67
2023-04-20T11:21:21.140Z,354.23
2023-04-20T11:23:50.187Z,354.80
2023-04-20T11:26:18.953Z,359.13
2023-04-20T11:28:56.610Z,360.20
2023-04-20T11:31:26.395Z,359.97
2023-04-20T11:33:54.475Z,366.03
2023-04-20T11:36:24.085Z,367.23
2023-04-20T11:38:52.466Z,363.57
2023-04-20T11:41:21.674Z,359.30
2023-04-20T11:43:50.347Z,361.67
2023-04-20T11:46:21.043Z,361.73
2023-04-20T11:48:49.426Z,360.77
2023-04-20T11:51:17.666Z,361.37
2023-04-20T11:53:45.786Z,357.00
2023-04-20T11:56:13.791Z,357.47
2023-04-20T11:58:41.786Z,356.03
2023-04-20T12:01:10.272Z,355.77
2023-04-20T12:03:39.925Z,358.33
2023-04-20T12:06:10.523Z,358.57
2023-04-20T12:08:38.548Z,354.70
2023-04-20T12:11:06.849Z,355.83
2023-04-20T12:13:35.010Z,356.03
2023-04-20T12:16:03.108Z,358.77
2023-04-20T12:18:31.253Z,350.23
2023-04-20T12:21:00.855Z,349.10
2023-04-20T12:23:29.147Z,349.40
2023-04-20T12:25:57.215Z,354.50
2023-04-20T12:28:25.257Z,346.47
2023-04-20T12:30:53.347Z,347.53
2023-04-20T12:33:21.362Z,345.87
2023-04-20T12:35:49.377Z,347.23
2023-04-20T12:38:19.112Z,345.50
2023-04-20T12:40:47.116Z,347.70
2023-04-20T12:43:16.180Z,348.93
2023-04-20T12:45:44.247Z,361.77
2023-04-20T12:48:12.351Z,365.03
2023-04-20T12:50:40.539Z,359.92
2023-04-20T12:53:08.572Z,368.40
2023-04-20T12:55:38.058Z,369.67
2023-04-20T12:58:06.358Z,365.97
2023-04-20T13:00:34.369Z,368.70
2023-04-20T13:03:02.585Z,371.53
2023-04-20T13:05:31.126Z,378.23
2023-04-20T13:07:59.193Z,377.67
2023-04-20T13:10:28.111Z,380.53
2023-04-20T13:12:58.329Z,386.17
2023-04-20T13:15:38.157Z,388.67
2023-04-20T13:18:07.866Z,396.20
2023-04-20T13:20:36.001Z,402.52
2023-04-20T13:23:05.070Z,411.90
2023-04-20T13:25:34.736Z,419.58
2023-04-20T13:28:05.146Z,415.98
2023-04-20T13:30:33.763Z,412.17
2023-04-20T13:33:02.132Z,417.40
2023-04-20T13:35:30.284Z,409.15
2023-04-20T13:37:59.300Z,412.77
2023-04-20T13:40:27.360Z,414.42
2023-04-20T13:42:55.385Z,415.02
2023-04-20T13:45:25.108Z,419.38
2023-04-20T13:47:53.206Z,416.58
2023-04-20T13:50:21.304Z,422.15
2023-04-20T13:52:51.350Z,425.92
2023-04-20T13:55:20.637Z,428.38
2023-04-20T13:57:48.759Z,425.73
2023-04-20T14:00:17.260Z,426.45
2023-04-20T14:02:47.816Z,417.23
2023-04-20T14:05:16.013Z,414.95
2023-04-20T14:07:44.065Z,411.40
2023-04-20T14:10:12.244Z,409.67
2023-04-20T14:12:40.272Z,407.15
2023-04-20T14:15:09.091Z,403.15
2023-04-20T14:17:37.148Z,405.00
2023-04-20T14:20:08.196Z,405.27
2023-04-20T14:22:37.516Z,407.85
2023-04-20T14:25:06.256Z,416.80
2023-04-20T14:27:34.279Z,423.83
2023-04-20T14:30:02.480Z,429.45
2023-04-20T14:32:31.554Z,443.95
2023-04-20T14:34:59.653Z,448.52
2023-04-20T14:37:29.044Z,461.00
2023-04-20T14:39:57.053Z,469.63
2023-04-20T14:42:25.036Z,475.42
2023-04-20T14:44:53.066Z,487.52
2023-04-20T14:47:21.226Z,498.75
2023-04-20T14:49:49.329Z,488.60
2023-04-20T14:52:17.482Z,472.95
2023-04-20T14:54:46.924Z,468.95
2023-04-20T14:57:15.003Z,472.23
2023-04-20T14:59:43.109Z,465.05
2023-04-20T15:02:11.195Z,455.17
2023-04-20T15:04:39.551Z,449.83
2023-04-20T15:07:07.675Z,454.02
2023-04-20T15:09:35.876Z,439.38
2023-04-20T15:12:05.858Z,440.50
2023-04-20T15:14:34.024Z,431.60
2023-04-20T15:17:01.974Z,425.88
2023-04-20T15:19:29.946Z,427.35
2023-04-20T15:21:57.863Z,419.02
2023-04-20T15:24:26.904Z,423.80
2023-04-20T15:26:54.910Z,419.15
2023-04-20T15:29:24.219Z,407.63
2023-04-20T15:31:52.309Z,415.83
2023-04-20T15:34:20.698Z,417.77
2023-04-20T15:36:48.876Z,418.80
2023-04-20T15:39:16.917Z,430.30
2023-04-20T15:41:44.891Z,431.83
2023-04-20T15:44:13.679Z,427.15
2023-04-20T15:46:43.012Z,432.80
2023-04-20T15:49:11.031Z,423.15
2023-04-20T15:51:39.591Z,414.10
2023-04-20T15:54:07.672Z,416.52
2023-04-20T15:56:35.686Z,406.58
2023-04-20T15:59:04.362Z,404.43
2023-04-20T16:01:32.409Z,398.23
2023-04-20T16:04:02.224Z,396.83
2023-04-20T16:06:31.601Z,391.80
2023-04-20T16:08:59.632Z,387.20
2023-04-20T16:11:27.743Z,383.53
2023-04-20T16:13:57.608Z,380.53
2023-04-20T16:16:25.768Z,379.77
2023-04-20T16:18:55.091Z,384.30
2023-04-20T16:21:24.440Z,393.77
2023-04-20T16:23:54.373Z,405.27
2023-04-20T16:26:22.554Z,399.67
2023-04-20T16:28:50.608Z,401.80
2023-04-20T16:31:18.906Z,404.25
2023-04-20T16:33:47.498Z,408.25
2023-04-20T16:36:16.599Z,416.75
2023-04-20T16:38:45.967Z,417.40
2023-04-20T16:41:13.986Z,431.48
2023-04-20T16:43:42.071Z,427.48
2023-04-20T16:46:13.730Z,424.48
2023-04-20T16:48:41.955Z,423.88
2023-04-20T16:51:10.004Z,419.33
2023-04-20T16:53:38.033Z,407.50
2023-04-20T16:56:09.134Z,412.35
2023-04-20T16:58:38.973Z,392.77
2023-04-20T17:01:08.818Z,397.93
2023-04-20T17:03:37.137Z,388.20
2023-04-20T17:06:08.019Z,387.23
2023-04-20T17:08:37.354Z,382.05
2023-04-20T17:11:07.548Z,381.25
2023-04-20T17:13:35.841Z,380.55
2023-04-20T17:16:05.788Z,381.77
2023-04-20T17:18:35.131Z,378.38
2023-04-20T17:21:03.683Z,381.48
2023-04-20T17:23:34.189Z,374.30
2023-04-20T17:26:02.169Z,378.67
2023-04-20T17:28:31.735Z,369.00
2023-04-20T17:30:59.979Z,371.73
2023-04-20T17:33:28.081Z,369.97
2023-04-20T17:35:57.357Z,370.37
2023-04-20T17:38:25.571Z,367.93
2023-04-20T17:40:53.686Z,364.40
2023-04-20T17:43:21.757Z,369.80
2023-04-20T17:45:51.541Z,365.90
2023-04-20T17:48:19.573Z,362.97
2023-04-20T17:50:49.607Z,360.37
2023-04-20T17:53:17.853Z,372.07
2023-04-20T17:55:45.884Z,360.17
2023-04-20T17:58:14.005Z,362.83
2023-04-20T18:00:42.993Z,363.30
2023-04-20T18:03:14.863Z,358.97
2023-04-20T18:05:43.117Z,359.63
2023-04-20T18:08:13.272Z,360.13
2023-04-20T18:10:41.254Z,356.03
2023-04-20T18:13:09.621Z,356.97
2023-04-20T18:15:37.845Z,360.47
2023-04-20T18:18:05.986Z,354.50
2023-04-20T18:20:35.596Z,355.93
2023-04-20T18:23:03.533Z,354.27
2023-04-20T18:25:31.551Z,353.60
2023-04-20T18:28:01.741Z,358.17
2023-04-20T18:30:29.761Z,355.90
2023-04-20T18:32:57.846Z,352.17
2023-04-20T18:35:26.152Z,348.67
2023-04-20T18:37:55.744Z,348.57
2023-04-20T18:40:23.941Z,351.03
2023-04-20T18:42:54.776Z,346.23
2023-04-20T18:45:23.979Z,348.07
2023-04-20T18:47:52.107Z,347.37
2023-04-20T18:50:20.246Z,349.27
2023-04-20T18:52:48.346Z,347.23
2023-04-20T18:55:17.813Z,346.93
2023-04-20T18:57:47.764Z,343.30
2023-04-20T19:00:16.413Z,348.47
2023-04-20T19:02:44.613Z,345.27
2023-04-20T19:05:13.133Z,369.23
2023-04-20T19:07:41.205Z,402.70
2023-04-20T19:10:10.541Z,355.50
2023-04-20T19:12:39.973Z,340.63
2023-04-20T19:15:09.745Z,343.03
2023-04-20T19:17:37.781Z,339.23
2023-04-20T19:20:06.857Z,340.73
2023-04-20T19:22:34.920Z,335.43
2023-04-20T19:25:03.574Z,342.10
2023-04-20T19:27:31.846Z,340.50
2023-04-20T19:30:01.202Z,337.50
2023-04-20T19:32:29.431Z,337.97
2023-04-20T19:34:59.147Z,335.50
2023-04-20T19:37:27.367Z,338.40
2023-04-20T19:39:55.605Z,334.53
2023-04-20T19:42:23.677Z,335.57
2023-04-20T19:44:53.570Z,337.80
2023-04-20T19:47:22.960Z,331.77
2023-04-20T19:49:51.064Z,333.23
2023-04-20T19:52:19.066Z,333.77
2023-04-20T19:54:47.084Z,335.27
2023-04-20T19:57:15.152Z,335.03
2023-04-20T19:59:43.110Z,333.40
2023-04-20T20:02:11.407Z,331.40
2023-04-20T20:04:40.891Z,327.40
2023-04-20T20:07:08.987Z,329.37
2023-04-20T20:09:37.479Z,331.03
2023-04-20T20:12:08.032Z,329.50
2023-04-20T20:14:37.606Z,331.67
2023-04-20T20:17:06.585Z,329.23
2023-04-20T20:19:34.521Z,334.77
2023-04-20T20:22:04.001Z,326.13
2023-04-20T20:24:31.959Z,329.43
2023-04-20T20:26:59.940Z,323.97
2023-04-20T20:29:29.622Z,323.13
2023-04-20T20:31:57.709Z,325.07
2023-04-20T20:34:25.739Z,326.60
2023-04-20T20:36:54.060Z,325.23
2023-04-20T20:39:23.687Z,326.23
2023-04-20T20:41:51.874Z,323.03
2023-04-20T20:44:20.697Z,323.60
2023-04-20T20:46:49.127Z,325.90
2023-04-20T20:49:17.310Z,325.00
2023-04-20T20:51:45.554Z,324.43
2023-04-20T20:54:13.524Z,324.67
2023-04-20T20:56:43.635Z,326.73
2023-04-20T20:59:11.669Z,323.63
2023-04-20T21:01:39.933Z,325.57
2023-04-20T21:04:08.432Z,329.07
2023-04-20T21:06:36.596Z,327.43
2023-04-20T21:09:04.995Z,323.27
2023-04-20T21:11:33.056Z,324.50
2023-04-20T21:14:03.467Z,325.20
2023-04-20T21:16:32.143Z,323.07
2023-04-20T21:19:00.597Z,320.20
2023-04-20T21:21:29.019Z,324.57
2023-04-20T21:23:57.101Z,320.40
2023-04-20T21:26:25.122Z,320.60
2023-04-20T21:28:53.093Z,322.20
2023-04-20T21:31:22.684Z,328.00
2023-04-20T21:33:50.662Z,317.83
2023-04-20T21:36:18.693Z,318.53
2023-04-20T21:38:46.904Z,319.83
2023-04-20T21:41:14.856Z,318.50
2023-04-20T21:43:43.615Z,320.23
2023-04-20T21:46:15.756Z,320.53
2023-04-20T21:48:45.202Z,315.33
2023-04-20T21:51:16.150Z,319.97
2023-04-20T21:53:44.245Z,318.33
2023-04-20T21:56:12.288Z,322.93
2023-04-20T21:58:40.603Z,316.50
2023-04-20T22:01:10.839Z,317.50
2023-04-20T22:03:39.014Z,319.70
2023-04-20T22:06:08.937Z,311.90
2023-04-20T22:08:39.689Z,316.47
2023-04-20T22:11:07.900Z,317.73
2023-04-20T22:13:38.250Z,314.10
2023-04-20T22:16:07.071Z,314.83
2023-04-20T22:18:35.586Z,314.23
2023-04-20T22:21:03.600Z,315.17
2023-04-20T22:23:33.138Z,317.70
2023-04-20T22:26:01.139Z,316.40
2023-04-20T22:28:29.112Z,312.40
2023-04-20T22:30:57.098Z,312.27
2023-04-20T22:33:25.762Z,317.53
2023-04-20T22:35:53.745Z,320.23
2023-04-20T22:38:22.301Z,310.53
2023-04-20T22:40:51.809Z,310.80
2023-04-20T22:43:21.256Z,316.43
2023-04-20T22:45:49.259Z,315.77
2023-04-20T22:48:17.542Z,312.60
2023-04-20T22:50:45.774Z,310.87
2023-04-20T22:53:14.361Z,310.57
2023-04-20T22:55:42.742Z,314.60
2023-04-20T22:58:12.453Z,315.30
2023-04-20T23:00:41.048Z,317.10
2023-04-20T23:03:09.643Z,308.57
2023-04-20T23:05:39.265Z,312.53
2023-04-20T23:08:07.770Z,313.50
2023-04-20T23:10:35.957Z,313.40
2023-04-20T23:13:05.037Z,309.67
2023-04-20T23:15:34.628Z,310.27
2023-04-20T23:18:05.623Z,308.43
2023-04-20T23:20:33.710Z,313.63
2023-04-20T23:23:01.908Z,307.70
2023-04-20T23:25:30.018Z,312.07
2023-04-20T23:27:58.016Z,307.67
2023-04-20T23:30:26.006Z,312.53
2023-04-20T23:32:55.861Z,309.13
2023-04-20T23:35:24.108Z,308.23
2023-04-20T23:37:52.154Z,311.33
2023-04-20T23:40:20.422Z,306.77
2023-04-20T23:42:48.844Z,308.67
2023-04-20T23:45:17.083Z,316.47
2023-04-20T23:47:46.322Z,309.03
2023-04-20T23:50:15.789Z,314.20
2023-04-20T23:52:43.899Z,306.20
2023-04-20T23:55:11.984Z,306.47
2023-04-20T23:57:41.089Z,306.90
